sensor_id;sensor_type;location;lat;lon;timestamp;P1;durP1;ratioP1;P2;durP2;ratioP2
77520;SDS011;66633;47.628;19.158;2023-05-16T00:00:39;7.77;;;3.50;;
77520;SDS011;66633;47.628;19.158;2023-05-16T00:03:04;6.70;;;4.32;;
77520;SDS011;66633;47.628;19.158;2023-05-16T00:05:30;6.07;;;3.90;;
77520;SDS011;66633;47.628;19.158;2023-05-16T00:07:55;5.80;;;3.28;;
77520;SDS011;66633;47.628;19.158;2023-05-16T00:10:20;6.57;;;3.97;;
77520;SDS011;66633;47.628;19.158;2023-05-16T00:12:46;7.20;;;3.77;;
77520;SDS011;66633;47.628;19.158;2023-05-16T00:15:12;8.88;;;3.88;;
77520;SDS011;66633;47.628;19.158;2023-05-16T00:17:38;7.93;;;5.72;;
77520;SDS011;66633;47.628;19.158;2023-05-16T00:20:05;6.95;;;4.13;;
77520;SDS011;66633;47.628;19.158;2023-05-16T00:22:32;7.93;;;4.32;;
77520;SDS011;66633;47.628;19.158;2023-05-16T00:24:57;6.55;;;3.70;;
77520;SDS011;66633;47.628;19.158;2023-05-16T00:27:22;6.07;;;3.53;;
77520;SDS011;66633;47.628;19.158;2023-05-16T00:29:48;5.68;;;3.22;;
77520;SDS011;66633;47.628;19.158;2023-05-16T00:32:13;5.70;;;3.30;;
77520;SDS011;66633;47.628;19.158;2023-05-16T00:34:39;6.03;;;3.47;;
77520;SDS011;66633;47.628;19.158;2023-05-16T00:37:04;6.23;;;3.40;;
77520;SDS011;66633;47.628;19.158;2023-05-16T00:39:30;6.13;;;3.33;;
77520;SDS011;66633;47.628;19.158;2023-05-16T00:41:55;5.10;;;2.63;;
77520;SDS011;66633;47.628;19.158;2023-05-16T00:44:21;5.55;;;2.70;;
77520;SDS011;66633;47.628;19.158;2023-05-16T00:46:47;5.55;;;3.17;;
77520;SDS011;66633;47.628;19.158;2023-05-16T00:49:12;6.22;;;2.90;;
77520;SDS011;66633;47.628;19.158;2023-05-16T00:51:37;4.55;;;2.42;;
77520;SDS011;66633;47.628;19.158;2023-05-16T00:54:03;4.95;;;2.08;;
77520;SDS011;66633;47.628;19.158;2023-05-16T00:56:29;4.45;;;2.28;;
77520;SDS011;66633;47.628;19.158;2023-05-16T00:58:54;4.22;;;2.30;;
77520;SDS011;66633;47.628;19.158;2023-05-16T01:01:20;5.60;;;2.60;;
77520;SDS011;66633;47.628;19.158;2023-05-16T01:03:47;4.60;;;2.13;;
77520;SDS011;66633;47.628;19.158;2023-05-16T01:06:13;5.85;;;2.50;;
77520;SDS011;66633;47.628;19.158;2023-05-16T01:08:39;5.00;;;2.83;;
77520;SDS011;66633;47.628;19.158;2023-05-16T01:13:34;5.63;;;3.07;;
77520;SDS011;66633;47.628;19.158;2023-05-16T01:16:29;5.20;;;2.97;;
77520;SDS011;66633;47.628;19.158;2023-05-16T01:21:19;6.57;;;3.58;;
77520;SDS011;66633;47.628;19.158;2023-05-16T01:23:57;5.65;;;3.22;;
77520;SDS011;66633;47.628;19.158;2023-05-16T01:26:27;4.72;;;2.63;;
77520;SDS011;66633;47.628;19.158;2023-05-16T01:28:54;4.97;;;2.50;;
77520;SDS011;66633;47.628;19.158;2023-05-16T01:31:20;5.13;;;2.35;;
77520;SDS011;66633;47.628;19.158;2023-05-16T01:33:45;7.60;;;2.40;;
77520;SDS011;66633;47.628;19.158;2023-05-16T01:36:32;5.30;;;2.60;;
77520;SDS011;66633;47.628;19.158;2023-05-16T01:43:59;4.47;;;2.47;;
77520;SDS011;66633;47.628;19.158;2023-05-16T01:46:26;4.40;;;2.40;;
77520;SDS011;66633;47.628;19.158;2023-05-16T01:51:41;6.10;;;3.20;;
77520;SDS011;66633;47.628;19.158;2023-05-16T01:54:08;5.32;;;3.15;;
77520;SDS011;66633;47.628;19.158;2023-05-16T01:56:35;4.65;;;2.50;;
77520;SDS011;66633;47.628;19.158;2023-05-16T01:59:01;4.80;;;2.28;;
77520;SDS011;66633;47.628;19.158;2023-05-16T02:01:26;4.47;;;2.30;;
77520;SDS011;66633;47.628;19.158;2023-05-16T02:03:51;4.18;;;2.35;;
77520;SDS011;66633;47.628;19.158;2023-05-16T02:06:17;5.20;;;2.00;;
77520;SDS011;66633;47.628;19.158;2023-05-16T02:08:42;5.40;;;2.33;;
77520;SDS011;66633;47.628;19.158;2023-05-16T02:11:07;4.93;;;2.33;;
77520;SDS011;66633;47.628;19.158;2023-05-16T02:13:32;6.03;;;2.50;;
77520;SDS011;66633;47.628;19.158;2023-05-16T02:15:58;5.00;;;2.30;;
77520;SDS011;66633;47.628;19.158;2023-05-16T02:18:23;6.63;;;2.50;;
77520;SDS011;66633;47.628;19.158;2023-05-16T02:20:49;3.92;;;2.17;;
77520;SDS011;66633;47.628;19.158;2023-05-16T02:23:14;5.90;;;2.13;;
77520;SDS011;66633;47.628;19.158;2023-05-16T02:25:40;4.82;;;1.90;;
77520;SDS011;66633;47.628;19.158;2023-05-16T02:28:05;3.60;;;1.73;;
77520;SDS011;66633;47.628;19.158;2023-05-16T02:30:31;4.82;;;2.50;;
77520;SDS011;66633;47.628;19.158;2023-05-16T02:32:56;4.40;;;2.30;;
77520;SDS011;66633;47.628;19.158;2023-05-16T02:35:21;4.27;;;2.20;;
77520;SDS011;66633;47.628;19.158;2023-05-16T02:37:47;4.68;;;2.28;;
77520;SDS011;66633;47.628;19.158;2023-05-16T02:40:12;4.40;;;2.20;;
77520;SDS011;66633;47.628;19.158;2023-05-16T02:42:37;3.88;;;1.98;;
77520;SDS011;66633;47.628;19.158;2023-05-16T02:45:03;4.00;;;1.80;;
77520;SDS011;66633;47.628;19.158;2023-05-16T02:47:28;5.95;;;2.50;;
77520;SDS011;66633;47.628;19.158;2023-05-16T02:49:54;5.90;;;2.70;;
77520;SDS011;66633;47.628;19.158;2023-05-16T02:52:20;5.25;;;2.60;;
77520;SDS011;66633;47.628;19.158;2023-05-16T02:54:45;4.53;;;2.55;;
77520;SDS011;66633;47.628;19.158;2023-05-16T02:57:10;5.60;;;2.42;;
77520;SDS011;66633;47.628;19.158;2023-05-16T02:59:36;4.45;;;2.38;;
77520;SDS011;66633;47.628;19.158;2023-05-16T03:02:02;4.90;;;2.60;;
77520;SDS011;66633;47.628;19.158;2023-05-16T03:04:27;5.65;;;2.60;;
77520;SDS011;66633;47.628;19.158;2023-05-16T03:06:52;5.33;;;2.33;;
77520;SDS011;66633;47.628;19.158;2023-05-16T03:09:18;5.07;;;2.50;;
77520;SDS011;66633;47.628;19.158;2023-05-16T03:11:43;4.95;;;2.25;;
77520;SDS011;66633;47.628;19.158;2023-05-16T03:14:09;4.75;;;2.50;;
77520;SDS011;66633;47.628;19.158;2023-05-16T03:16:34;5.78;;;2.70;;
77520;SDS011;66633;47.628;19.158;2023-05-16T03:19:02;4.90;;;2.60;;
77520;SDS011;66633;47.628;19.158;2023-05-16T03:21:27;5.47;;;2.40;;
77520;SDS011;66633;47.628;19.158;2023-05-16T03:23:53;5.53;;;2.60;;
77520;SDS011;66633;47.628;19.158;2023-05-16T03:26:19;4.45;;;2.20;;
77520;SDS011;66633;47.628;19.158;2023-05-16T03:28:45;4.63;;;2.45;;
77520;SDS011;66633;47.628;19.158;2023-05-16T03:31:10;4.95;;;2.63;;
77520;SDS011;66633;47.628;19.158;2023-05-16T03:33:36;5.78;;;2.80;;
77520;SDS011;66633;47.628;19.158;2023-05-16T03:36:01;5.80;;;2.60;;
77520;SDS011;66633;47.628;19.158;2023-05-16T03:38:26;4.97;;;2.50;;
77520;SDS011;66633;47.628;19.158;2023-05-16T03:40:51;5.00;;;2.63;;
77520;SDS011;66633;47.628;19.158;2023-05-16T03:43:17;5.22;;;2.30;;
77520;SDS011;66633;47.628;19.158;2023-05-16T03:45:42;4.78;;;2.13;;
77520;SDS011;66633;47.628;19.158;2023-05-16T03:48:08;6.47;;;2.70;;
77520;SDS011;66633;47.628;19.158;2023-05-16T03:50:34;6.55;;;2.42;;
77520;SDS011;66633;47.628;19.158;2023-05-16T03:53:01;4.93;;;2.60;;
77520;SDS011;66633;47.628;19.158;2023-05-16T03:55:26;5.60;;;3.07;;
77520;SDS011;66633;47.628;19.158;2023-05-16T03:57:51;5.70;;;3.40;;
77520;SDS011;66633;47.628;19.158;2023-05-16T04:00:17;5.68;;;2.97;;
77520;SDS011;66633;47.628;19.158;2023-05-16T04:02:42;6.28;;;2.75;;
77520;SDS011;66633;47.628;19.158;2023-05-16T04:05:09;5.38;;;2.78;;
77520;SDS011;66633;47.628;19.158;2023-05-16T04:07:35;5.95;;;3.03;;
77520;SDS011;66633;47.628;19.158;2023-05-16T04:10:00;5.97;;;2.92;;
77520;SDS011;66633;47.628;19.158;2023-05-16T04:12:26;6.53;;;2.80;;
77520;SDS011;66633;47.628;19.158;2023-05-16T04:14:51;7.37;;;3.10;;
77520;SDS011;66633;47.628;19.158;2023-05-16T04:17:17;5.47;;;3.45;;
77520;SDS011;66633;47.628;19.158;2023-05-16T04:19:42;6.70;;;3.33;;
77520;SDS011;66633;47.628;19.158;2023-05-16T04:22:08;5.55;;;2.88;;
77520;SDS011;66633;47.628;19.158;2023-05-16T04:24:33;7.25;;;2.92;;
77520;SDS011;66633;47.628;19.158;2023-05-16T04:26:58;6.20;;;3.03;;
77520;SDS011;66633;47.628;19.158;2023-05-16T04:29:24;5.72;;;3.00;;
77520;SDS011;66633;47.628;19.158;2023-05-16T04:31:49;7.00;;;3.20;;
77520;SDS011;66633;47.628;19.158;2023-05-16T04:34:15;7.85;;;3.10;;
77520;SDS011;66633;47.628;19.158;2023-05-16T04:36:40;6.00;;;2.40;;
77520;SDS011;66633;47.628;19.158;2023-05-16T04:39:05;5.60;;;2.60;;
77520;SDS011;66633;47.628;19.158;2023-05-16T04:41:31;5.18;;;2.67;;
77520;SDS011;66633;47.628;19.158;2023-05-16T04:43:57;6.47;;;2.90;;
77520;SDS011;66633;47.628;19.158;2023-05-16T04:46:23;5.72;;;2.60;;
77520;SDS011;66633;47.628;19.158;2023-05-16T04:48:48;5.40;;;2.78;;
77520;SDS011;66633;47.628;19.158;2023-05-16T04:51:13;5.10;;;2.30;;
77520;SDS011;66633;47.628;19.158;2023-05-16T04:53:38;4.47;;;2.30;;
77520;SDS011;66633;47.628;19.158;2023-05-16T04:56:05;5.60;;;2.60;;
77520;SDS011;66633;47.628;19.158;2023-05-16T04:58:30;6.70;;;2.70;;
77520;SDS011;66633;47.628;19.158;2023-05-16T05:00:56;4.27;;;2.00;;
77520;SDS011;66633;47.628;19.158;2023-05-16T05:03:21;5.03;;;2.40;;
77520;SDS011;66633;47.628;19.158;2023-05-16T05:05:47;4.80;;;2.20;;
77520;SDS011;66633;47.628;19.158;2023-05-16T05:08:12;4.63;;;2.47;;
77520;SDS011;66633;47.628;19.158;2023-05-16T05:10:37;4.80;;;2.20;;
77520;SDS011;66633;47.628;19.158;2023-05-16T05:13:03;4.35;;;2.25;;
77520;SDS011;66633;47.628;19.158;2023-05-16T05:15:29;3.88;;;1.85;;
77520;SDS011;66633;47.628;19.158;2023-05-16T05:17:54;5.28;;;2.20;;
77520;SDS011;66633;47.628;19.158;2023-05-16T05:20:19;4.33;;;1.90;;
77520;SDS011;66633;47.628;19.158;2023-05-16T05:22:45;5.07;;;2.28;;
77520;SDS011;66633;47.628;19.158;2023-05-16T05:25:11;6.82;;;3.20;;
77520;SDS011;66633;47.628;19.158;2023-05-16T05:27:36;5.20;;;2.30;;
77520;SDS011;66633;47.628;19.158;2023-05-16T05:30:02;4.37;;;2.00;;
77520;SDS011;66633;47.628;19.158;2023-05-16T05:32:27;3.83;;;2.05;;
77520;SDS011;66633;47.628;19.158;2023-05-16T05:34:53;3.88;;;2.10;;
77520;SDS011;66633;47.628;19.158;2023-05-16T05:37:18;4.87;;;1.97;;
77520;SDS011;66633;47.628;19.158;2023-05-16T05:39:43;5.00;;;2.63;;
77520;SDS011;66633;47.628;19.158;2023-05-16T05:42:09;6.15;;;2.33;;
77520;SDS011;66633;47.628;19.158;2023-05-16T05:44:35;6.32;;;2.50;;
77520;SDS011;66633;47.628;19.158;2023-05-16T05:47:01;5.20;;;2.60;;
77520;SDS011;66633;47.628;19.158;2023-05-16T05:49:26;6.77;;;2.77;;
77520;SDS011;66633;47.628;19.158;2023-05-16T05:51:52;5.30;;;2.80;;
77520;SDS011;66633;47.628;19.158;2023-05-16T05:54:18;8.25;;;2.80;;
77520;SDS011;66633;47.628;19.158;2023-05-16T05:56:43;6.47;;;2.20;;
77520;SDS011;66633;47.628;19.158;2023-05-16T05:59:08;8.70;;;2.87;;
77520;SDS011;66633;47.628;19.158;2023-05-16T06:01:34;4.80;;;2.37;;
77520;SDS011;66633;47.628;19.158;2023-05-16T06:03:59;5.50;;;2.63;;
77520;SDS011;66633;47.628;19.158;2023-05-16T06:06:24;5.82;;;2.92;;
77520;SDS011;66633;47.628;19.158;2023-05-16T06:08:50;5.13;;;2.63;;
77520;SDS011;66633;47.628;19.158;2023-05-16T06:11:15;5.43;;;2.60;;
77520;SDS011;66633;47.628;19.158;2023-05-16T06:13:40;7.23;;;2.80;;
77520;SDS011;66633;47.628;19.158;2023-05-16T06:16:06;11.17;;;2.97;;
77520;SDS011;66633;47.628;19.158;2023-05-16T06:18:31;9.50;;;2.90;;
77520;SDS011;66633;47.628;19.158;2023-05-16T06:20:56;4.63;;;2.72;;
77520;SDS011;66633;47.628;19.158;2023-05-16T06:23:22;6.40;;;3.33;;
77520;SDS011;66633;47.628;19.158;2023-05-16T06:25:47;8.00;;;2.70;;
77520;SDS011;66633;47.628;19.158;2023-05-16T06:28:13;6.40;;;2.92;;
77520;SDS011;66633;47.628;19.158;2023-05-16T06:30:38;5.70;;;2.92;;
77520;SDS011;66633;47.628;19.158;2023-05-16T06:33:03;5.47;;;2.90;;
77520;SDS011;66633;47.628;19.158;2023-05-16T06:35:29;6.97;;;3.05;;
77520;SDS011;66633;47.628;19.158;2023-05-16T06:37:54;7.05;;;3.85;;
77520;SDS011;66633;47.628;19.158;2023-05-16T06:40:20;5.82;;;3.25;;
77520;SDS011;66633;47.628;19.158;2023-05-16T06:42:45;6.05;;;2.85;;
77520;SDS011;66633;47.628;19.158;2023-05-16T06:45:10;6.47;;;3.05;;
77520;SDS011;66633;47.628;19.158;2023-05-16T06:47:36;6.32;;;3.08;;
77520;SDS011;66633;47.628;19.158;2023-05-16T06:50:01;6.78;;;2.78;;
77520;SDS011;66633;47.628;19.158;2023-05-16T06:52:26;5.07;;;2.90;;
77520;SDS011;66633;47.628;19.158;2023-05-16T06:54:52;6.35;;;3.17;;
77520;SDS011;66633;47.628;19.158;2023-05-16T06:57:17;7.10;;;3.53;;
77520;SDS011;66633;47.628;19.158;2023-05-16T06:59:42;5.97;;;2.90;;
77520;SDS011;66633;47.628;19.158;2023-05-16T07:02:08;5.90;;;3.05;;
77520;SDS011;66633;47.628;19.158;2023-05-16T07:04:33;5.25;;;3.10;;
77520;SDS011;66633;47.628;19.158;2023-05-16T07:07:01;7.93;;;3.40;;
77520;SDS011;66633;47.628;19.158;2023-05-16T07:09:27;6.63;;;3.47;;
77520;SDS011;66633;47.628;19.158;2023-05-16T07:11:52;5.67;;;3.10;;
77520;SDS011;66633;47.628;19.158;2023-05-16T07:14:17;5.83;;;3.47;;
77520;SDS011;66633;47.628;19.158;2023-05-16T07:16:42;5.45;;;3.35;;
77520;SDS011;66633;47.628;19.158;2023-05-16T07:19:08;5.95;;;2.92;;
77520;SDS011;66633;47.628;19.158;2023-05-16T07:21:33;5.45;;;2.67;;
77520;SDS011;66633;47.628;19.158;2023-05-16T07:23:58;5.30;;;2.70;;
77520;SDS011;66633;47.628;19.158;2023-05-16T07:26:24;5.97;;;3.23;;
77520;SDS011;66633;47.628;19.158;2023-05-16T07:28:49;6.93;;;3.80;;
77520;SDS011;66633;47.628;19.158;2023-05-16T07:31:14;7.40;;;3.83;;
77520;SDS011;66633;47.628;19.158;2023-05-16T07:33:41;6.85;;;3.95;;
77520;SDS011;66633;47.628;19.158;2023-05-16T07:36:06;8.45;;;4.18;;
77520;SDS011;66633;47.628;19.158;2023-05-16T07:38:32;7.13;;;3.38;;
77520;SDS011;66633;47.628;19.158;2023-05-16T07:40:57;8.48;;;4.28;;
77520;SDS011;66633;47.628;19.158;2023-05-16T07:43:22;8.77;;;4.40;;
77520;SDS011;66633;47.628;19.158;2023-05-16T07:45:47;7.93;;;4.87;;
77520;SDS011;66633;47.628;19.158;2023-05-16T07:48:13;7.38;;;4.43;;
77520;SDS011;66633;47.628;19.158;2023-05-16T07:50:38;10.40;;;4.50;;
77520;SDS011;66633;47.628;19.158;2023-05-16T07:53:03;7.37;;;4.57;;
77520;SDS011;66633;47.628;19.158;2023-05-16T07:55:29;8.67;;;4.50;;
77520;SDS011;66633;47.628;19.158;2023-05-16T07:57:54;7.68;;;4.25;;
77520;SDS011;66633;47.628;19.158;2023-05-16T08:00:19;6.88;;;4.32;;
77520;SDS011;66633;47.628;19.158;2023-05-16T08:02:45;7.55;;;4.25;;
77520;SDS011;66633;47.628;19.158;2023-05-16T08:05:10;7.18;;;4.65;;
77520;SDS011;66633;47.628;19.158;2023-05-16T08:07:36;8.30;;;4.38;;
77520;SDS011;66633;47.628;19.158;2023-05-16T08:10:01;7.63;;;4.72;;
77520;SDS011;66633;47.628;19.158;2023-05-16T08:12:27;8.57;;;4.60;;
77520;SDS011;66633;47.628;19.158;2023-05-16T08:14:54;9.70;;;5.22;;
77520;SDS011;66633;47.628;19.158;2023-05-16T08:17:20;12.27;;;6.38;;
77520;SDS011;66633;47.628;19.158;2023-05-16T08:19:45;10.10;;;6.05;;
77520;SDS011;66633;47.628;19.158;2023-05-16T08:22:10;10.45;;;6.03;;
77520;SDS011;66633;47.628;19.158;2023-05-16T08:24:36;10.65;;;6.60;;
77520;SDS011;66633;47.628;19.158;2023-05-16T08:27:01;10.13;;;5.87;;
77520;SDS011;66633;47.628;19.158;2023-05-16T08:29:26;10.73;;;6.53;;
77520;SDS011;66633;47.628;19.158;2023-05-16T08:31:51;14.77;;;7.83;;
77520;SDS011;66633;47.628;19.158;2023-05-16T08:34:17;10.38;;;5.93;;
77520;SDS011;66633;47.628;19.158;2023-05-16T08:36:42;12.48;;;7.82;;
77520;SDS011;66633;47.628;19.158;2023-05-16T08:39:07;14.18;;;8.27;;
77520;SDS011;66633;47.628;19.158;2023-05-16T08:41:35;11.10;;;6.13;;
77520;SDS011;66633;47.628;19.158;2023-05-16T08:44:00;14.10;;;8.02;;
77520;SDS011;66633;47.628;19.158;2023-05-16T08:46:26;17.90;;;9.07;;
77520;SDS011;66633;47.628;19.158;2023-05-16T08:48:52;15.05;;;9.10;;
77520;SDS011;66633;47.628;19.158;2023-05-16T08:51:20;17.92;;;10.60;;
77520;SDS011;66633;47.628;19.158;2023-05-16T08:54:08;18.42;;;10.98;;
77520;SDS011;66633;47.628;19.158;2023-05-16T08:56:35;20.85;;;12.02;;
77520;SDS011;66633;47.628;19.158;2023-05-16T08:59:02;22.27;;;12.55;;
77520;SDS011;66633;47.628;19.158;2023-05-16T09:01:29;19.95;;;12.07;;
77520;SDS011;66633;47.628;19.158;2023-05-16T09:03:54;21.23;;;13.02;;
77520;SDS011;66633;47.628;19.158;2023-05-16T09:06:20;24.90;;;12.82;;
77520;SDS011;66633;47.628;19.158;2023-05-16T09:08:45;22.45;;;14.10;;
77520;SDS011;66633;47.628;19.158;2023-05-16T09:11:11;22.70;;;13.60;;
77520;SDS011;66633;47.628;19.158;2023-05-16T09:13:37;19.13;;;12.30;;
77520;SDS011;66633;47.628;19.158;2023-05-16T09:18:34;23.90;;;15.25;;
77520;SDS011;66633;47.628;19.158;2023-05-16T09:21:01;22.50;;;14.10;;
77520;SDS011;66633;47.628;19.158;2023-05-16T09:23:27;26.80;;;17.15;;
77520;SDS011;66633;47.628;19.158;2023-05-16T09:25:52;27.05;;;15.93;;
77520;SDS011;66633;47.628;19.158;2023-05-16T09:28:18;22.67;;;13.17;;
77520;SDS011;66633;47.628;19.158;2023-05-16T09:30:45;24.42;;;14.95;;
77520;SDS011;66633;47.628;19.158;2023-05-16T09:33:10;24.17;;;15.27;;
77520;SDS011;66633;47.628;19.158;2023-05-16T09:35:35;22.30;;;14.25;;
77520;SDS011;66633;47.628;19.158;2023-05-16T09:38:01;28.37;;;17.17;;
77520;SDS011;66633;47.628;19.158;2023-05-16T09:40:27;28.05;;;17.48;;
77520;SDS011;66633;47.628;19.158;2023-05-16T09:43:02;22.13;;;14.13;;
77520;SDS011;66633;47.628;19.158;2023-05-16T09:45:32;22.08;;;13.52;;
77520;SDS011;66633;47.628;19.158;2023-05-16T09:48:03;25.52;;;16.48;;
77520;SDS011;66633;47.628;19.158;2023-05-16T09:50:28;16.00;;;10.60;;
77520;SDS011;66633;47.628;19.158;2023-05-16T09:52:56;13.20;;;9.10;;
77520;SDS011;66633;47.628;19.158;2023-05-16T09:55:21;12.05;;;7.93;;
77520;SDS011;66633;47.628;19.158;2023-05-16T09:57:46;11.65;;;7.53;;
77520;SDS011;66633;47.628;19.158;2023-05-16T10:00:12;10.75;;;7.53;;
77520;SDS011;66633;47.628;19.158;2023-05-16T10:02:38;12.05;;;7.95;;
77520;SDS011;66633;47.628;19.158;2023-05-16T10:05:05;11.95;;;7.45;;
77520;SDS011;66633;47.628;19.158;2023-05-16T10:07:30;11.45;;;6.75;;
77520;SDS011;66633;47.628;19.158;2023-05-16T10:10:04;12.38;;;8.10;;
77520;SDS011;66633;47.628;19.158;2023-05-16T10:12:29;13.27;;;8.25;;
77520;SDS011;66633;47.628;19.158;2023-05-16T10:14:56;11.77;;;7.55;;
77520;SDS011;66633;47.628;19.158;2023-05-16T10:17:21;12.00;;;7.40;;
77520;SDS011;66633;47.628;19.158;2023-05-16T10:19:47;11.85;;;6.97;;
77520;SDS011;66633;47.628;19.158;2023-05-16T10:22:12;11.38;;;7.78;;
77520;SDS011;66633;47.628;19.158;2023-05-16T10:24:56;10.00;;;6.05;;
77520;SDS011;66633;47.628;19.158;2023-05-16T10:27:23;10.82;;;5.93;;
77520;SDS011;66633;47.628;19.158;2023-05-16T10:29:49;11.75;;;7.22;;
77520;SDS011;66633;47.628;19.158;2023-05-16T10:32:15;8.52;;;5.55;;
77520;SDS011;66633;47.628;19.158;2023-05-16T10:34:40;10.75;;;5.85;;
77520;SDS011;66633;47.628;19.158;2023-05-16T10:37:06;9.43;;;5.97;;
77520;SDS011;66633;47.628;19.158;2023-05-16T10:39:31;14.02;;;8.75;;
77520;SDS011;66633;47.628;19.158;2023-05-16T10:41:57;12.38;;;8.60;;
77520;SDS011;66633;47.628;19.158;2023-05-16T10:44:24;12.20;;;8.90;;
77520;SDS011;66633;47.628;19.158;2023-05-16T10:46:49;10.93;;;7.75;;
77520;SDS011;66633;47.628;19.158;2023-05-16T10:49:21;13.65;;;8.63;;
77520;SDS011;66633;47.628;19.158;2023-05-16T10:51:52;12.60;;;8.60;;
77520;SDS011;66633;47.628;19.158;2023-05-16T10:54:32;11.80;;;7.63;;
77520;SDS011;66633;47.628;19.158;2023-05-16T10:56:57;12.93;;;8.75;;
77520;SDS011;66633;47.628;19.158;2023-05-16T10:59:27;13.85;;;9.20;;
77520;SDS011;66633;47.628;19.158;2023-05-16T11:01:54;12.70;;;8.70;;
77520;SDS011;66633;47.628;19.158;2023-05-16T11:04:19;16.73;;;9.85;;
77520;SDS011;66633;47.628;19.158;2023-05-16T11:06:45;19.00;;;11.67;;
77520;SDS011;66633;47.628;19.158;2023-05-16T11:09:17;14.07;;;9.02;;
77520;SDS011;66633;47.628;19.158;2023-05-16T11:19:18;12.55;;;8.18;;
77520;SDS011;66633;47.628;19.158;2023-05-16T11:24:30;12.27;;;7.22;;
77520;SDS011;66633;47.628;19.158;2023-05-16T11:26:56;11.50;;;7.22;;
77520;SDS011;66633;47.628;19.158;2023-05-16T11:29:23;11.07;;;5.78;;
77520;SDS011;66633;47.628;19.158;2023-05-16T11:31:48;8.98;;;5.18;;
77520;SDS011;66633;47.628;19.158;2023-05-16T11:34:14;9.02;;;5.00;;
77520;SDS011;66633;47.628;19.158;2023-05-16T11:36:40;10.45;;;6.90;;
77520;SDS011;66633;47.628;19.158;2023-05-16T11:39:06;9.13;;;5.72;;
77520;SDS011;66633;47.628;19.158;2023-05-16T11:41:33;9.80;;;5.75;;
77520;SDS011;66633;47.628;19.158;2023-05-16T11:43:59;9.30;;;6.65;;
77520;SDS011;66633;47.628;19.158;2023-05-16T11:46:24;10.87;;;6.93;;
77520;SDS011;66633;47.628;19.158;2023-05-16T11:48:49;9.70;;;6.10;;
77520;SDS011;66633;47.628;19.158;2023-05-16T11:51:17;10.00;;;6.65;;
77520;SDS011;66633;47.628;19.158;2023-05-16T11:53:42;8.60;;;6.15;;
77520;SDS011;66633;47.628;19.158;2023-05-16T11:56:08;8.40;;;5.72;;
77520;SDS011;66633;47.628;19.158;2023-05-16T11:58:34;10.05;;;5.80;;
77520;SDS011;66633;47.628;19.158;2023-05-16T12:01:02;8.63;;;5.85;;
77520;SDS011;66633;47.628;19.158;2023-05-16T12:03:29;9.18;;;5.60;;
77520;SDS011;66633;47.628;19.158;2023-05-16T12:05:57;9.85;;;5.93;;
77520;SDS011;66633;47.628;19.158;2023-05-16T12:08:23;9.25;;;5.13;;
77520;SDS011;66633;47.628;19.158;2023-05-16T12:10:51;8.30;;;5.38;;
77520;SDS011;66633;47.628;19.158;2023-05-16T12:13:17;9.70;;;5.75;;
77520;SDS011;66633;47.628;19.158;2023-05-16T12:15:43;9.18;;;5.93;;
77520;SDS011;66633;47.628;19.158;2023-05-16T12:18:09;7.75;;;4.82;;
77520;SDS011;66633;47.628;19.158;2023-05-16T12:20:35;10.75;;;5.30;;
77520;SDS011;66633;47.628;19.158;2023-05-16T12:23:00;7.60;;;4.70;;
77520;SDS011;66633;47.628;19.158;2023-05-16T12:25:26;8.95;;;5.70;;
77520;SDS011;66633;47.628;19.158;2023-05-16T12:27:52;9.60;;;6.32;;
77520;SDS011;66633;47.628;19.158;2023-05-16T12:30:19;9.32;;;6.68;;
77520;SDS011;66633;47.628;19.158;2023-05-16T12:32:45;10.48;;;6.75;;
77520;SDS011;66633;47.628;19.158;2023-05-16T12:35:16;10.20;;;7.05;;
77520;SDS011;66633;47.628;19.158;2023-05-16T12:37:42;9.20;;;6.40;;
77520;SDS011;66633;47.628;19.158;2023-05-16T12:40:08;9.55;;;6.63;;
77520;SDS011;66633;47.628;19.158;2023-05-16T12:42:34;10.50;;;7.13;;
77520;SDS011;66633;47.628;19.158;2023-05-16T12:45:00;12.77;;;9.10;;
77520;SDS011;66633;47.628;19.158;2023-05-16T12:47:33;14.65;;;10.38;;
77520;SDS011;66633;47.628;19.158;2023-05-16T12:49:59;12.50;;;9.88;;
77520;SDS011;66633;47.628;19.158;2023-05-16T12:52:27;13.05;;;9.57;;
77520;SDS011;66633;47.628;19.158;2023-05-16T12:54:53;14.38;;;11.15;;
77520;SDS011;66633;47.628;19.158;2023-05-16T12:57:18;14.93;;;10.60;;
77520;SDS011;66633;47.628;19.158;2023-05-16T12:59:43;12.52;;;10.40;;
77520;SDS011;66633;47.628;19.158;2023-05-16T13:02:09;12.40;;;9.38;;
77520;SDS011;66633;47.628;19.158;2023-05-16T13:04:34;12.60;;;9.50;;
77520;SDS011;66633;47.628;19.158;2023-05-16T13:07:00;13.00;;;9.23;;
77520;SDS011;66633;47.628;19.158;2023-05-16T13:09:26;13.25;;;9.32;;
77520;SDS011;66633;47.628;19.158;2023-05-16T13:11:52;10.90;;;7.37;;
77520;SDS011;66633;47.628;19.158;2023-05-16T13:14:17;13.00;;;8.32;;
77520;SDS011;66633;47.628;19.158;2023-05-16T13:16:42;13.43;;;8.43;;
77520;SDS011;66633;47.628;19.158;2023-05-16T13:19:08;13.48;;;8.80;;
77520;SDS011;66633;47.628;19.158;2023-05-16T13:21:34;12.23;;;7.85;;
77520;SDS011;66633;47.628;19.158;2023-05-16T13:23:59;11.05;;;7.65;;
77520;SDS011;66633;47.628;19.158;2023-05-16T13:26:24;12.68;;;7.65;;
77520;SDS011;66633;47.628;19.158;2023-05-16T13:28:51;12.90;;;8.20;;
77520;SDS011;66633;47.628;19.158;2023-05-16T13:31:18;10.50;;;7.18;;
77520;SDS011;66633;47.628;19.158;2023-05-16T13:33:43;14.70;;;8.60;;
77520;SDS011;66633;47.628;19.158;2023-05-16T13:36:08;12.90;;;7.30;;
77520;SDS011;66633;47.628;19.158;2023-05-16T13:38:34;11.18;;;7.80;;
77520;SDS011;66633;47.628;19.158;2023-05-16T13:41:00;12.63;;;8.52;;
77520;SDS011;66633;47.628;19.158;2023-05-16T13:43:25;12.57;;;7.57;;
77520;SDS011;66633;47.628;19.158;2023-05-16T13:45:51;11.57;;;8.00;;
77520;SDS011;66633;47.628;19.158;2023-05-16T13:48:16;12.88;;;7.45;;
77520;SDS011;66633;47.628;19.158;2023-05-16T13:50:41;12.47;;;8.10;;
77520;SDS011;66633;47.628;19.158;2023-05-16T13:53:06;12.70;;;8.53;;
77520;SDS011;66633;47.628;19.158;2023-05-16T13:55:32;16.23;;;8.65;;
77520;SDS011;66633;47.628;19.158;2023-05-16T13:57:58;15.40;;;9.20;;
77520;SDS011;66633;47.628;19.158;2023-05-16T14:00:24;14.13;;;8.30;;
77520;SDS011;66633;47.628;19.158;2023-05-16T14:02:49;13.98;;;7.97;;
77520;SDS011;66633;47.628;19.158;2023-05-16T14:05:14;12.20;;;8.35;;
77520;SDS011;66633;47.628;19.158;2023-05-16T14:07:40;12.00;;;7.55;;
77520;SDS011;66633;47.628;19.158;2023-05-16T14:10:06;13.15;;;7.50;;
77520;SDS011;66633;47.628;19.158;2023-05-16T14:12:31;11.75;;;7.07;;
77520;SDS011;66633;47.628;19.158;2023-05-16T14:14:57;13.75;;;8.20;;
77520;SDS011;66633;47.628;19.158;2023-05-16T14:17:23;12.70;;;8.18;;
77520;SDS011;66633;47.628;19.158;2023-05-16T14:19:48;16.70;;;8.95;;
77520;SDS011;66633;47.628;19.158;2023-05-16T14:22:13;14.23;;;8.75;;
77520;SDS011;66633;47.628;19.158;2023-05-16T14:24:39;12.40;;;7.57;;
77520;SDS011;66633;47.628;19.158;2023-05-16T14:27:04;13.90;;;8.02;;
77520;SDS011;66633;47.628;19.158;2023-05-16T14:29:29;14.43;;;9.23;;
77520;SDS011;66633;47.628;19.158;2023-05-16T14:31:55;13.75;;;7.85;;
77520;SDS011;66633;47.628;19.158;2023-05-16T14:34:20;10.75;;;7.00;;
77520;SDS011;66633;47.628;19.158;2023-05-16T14:36:46;12.50;;;7.85;;
77520;SDS011;66633;47.628;19.158;2023-05-16T14:39:11;12.98;;;8.60;;
77520;SDS011;66633;47.628;19.158;2023-05-16T14:41:37;14.30;;;8.57;;
77520;SDS011;66633;47.628;19.158;2023-05-16T14:44:02;12.82;;;7.95;;
77520;SDS011;66633;47.628;19.158;2023-05-16T14:46:28;11.10;;;7.97;;